createdAt,value
2023-05-04T00:00:13.512Z,10.05
2023-05-04T00:02:45.459Z,9.95
2023-05-04T00:05:14.558Z,10.02
2023-05-04T00:07:41.240Z,9.98
2023-05-04T00:10:08.856Z,9.91
2023-05-04T00:12:35.663Z,9.84
2023-05-04T00:15:02.446Z,9.89
2023-05-04T00:17:29.038Z,9.89
2023-05-04T00:19:55.620Z,9.80
2023-05-04T00:22:22.319Z,9.72
2023-05-04T00:24:51.428Z,9.69
2023-05-04T00:27:20.288Z,9.73
2023-05-04T00:29:46.899Z,9.68
2023-05-04T00:32:16.716Z,9.42
2023-05-04T00:34:43.253Z,9.68
2023-05-04T00:37:09.750Z,9.56
2023-05-04T00:39:36.377Z,9.67
2023-05-04T00:42:03.258Z,9.61
2023-05-04T00:44:34.613Z,9.61
2023-05-04T00:47:03.258Z,9.52
2023-05-04T00:49:32.317Z,9.55
2023-05-04T00:52:02.101Z,9.50
2023-05-04T00:54:29.306Z,9.41
2023-05-04T00:56:56.449Z,9.23
2023-05-04T00:59:25.579Z,9.45
2023-05-04T01:01:52.583Z,9.38
2023-05-04T01:04:21.637Z,9.43
2023-05-04T01:07:11.610Z,8.76
2023-05-04T01:10:33.858Z,9.34
2023-05-04T01:13:13.033Z,9.23
2023-05-04T01:15:40.520Z,9.30
2023-05-04T01:18:07.351Z,9.23
2023-05-04T01:20:34.667Z,9.24
2023-05-04T01:23:02.367Z,9.18
2023-05-04T01:25:36.032Z,9.18
2023-05-04T01:28:11.502Z,9.02
2023-05-04T01:30:48.865Z,9.10
2023-05-04T01:33:17.299Z,9.06
2023-05-04T01:35:44.599Z,9.02
2023-05-04T01:38:11.233Z,8.89
2023-05-04T01:40:40.123Z,8.81
2023-05-04T01:43:09.127Z,8.84
2023-05-04T01:45:38.137Z,8.67
2023-05-04T01:48:05.287Z,8.75
2023-05-04T01:50:34.110Z,8.69
2023-05-04T01:53:02.820Z,8.74
2023-05-04T01:55:31.637Z,8.65
2023-05-04T01:57:58.363Z,8.25
2023-05-04T02:00:25.021Z,8.67
2023-05-04T02:02:53.993Z,8.63
2023-05-04T02:05:23.160Z,8.71
2023-05-04T02:07:49.713Z,8.59
2023-05-04T02:10:18.528Z,8.53
2023-05-04T02:12:47.449Z,8.61
2023-05-04T02:15:14.049Z,8.58
2023-05-04T02:17:43.008Z,8.62
2023-05-04T02:20:10.311Z,8.60
2023-05-04T02:22:36.907Z,8.46
2023-05-04T02:25:03.652Z,8.49
2023-05-04T02:27:32.566Z,8.53
2023-05-04T02:29:59.404Z,8.47
2023-05-04T02:32:28.726Z,8.44
2023-05-04T02:34:55.333Z,8.30
2023-05-04T02:37:22.347Z,8.42
2023-05-04T02:39:48.941Z,8.40
2023-05-04T02:42:15.654Z,8.39
2023-05-04T02:44:42.400Z,8.36
2023-05-04T02:47:09.606Z,8.10
2023-05-04T02:49:36.369Z,8.25
2023-05-04T02:52:02.958Z,8.22
2023-05-04T02:54:32.105Z,7.95
2023-05-04T02:56:58.675Z,7.97
2023-05-04T02:59:25.242Z,8.07
2023-05-04T03:01:52.250Z,8.03
2023-05-04T03:04:18.885Z,7.99
2023-05-04T03:06:45.486Z,7.96
2023-05-04T03:09:15.141Z,7.97
2023-05-04T03:11:41.941Z,7.83
2023-05-04T03:14:08.550Z,7.90
2023-05-04T03:16:35.212Z,7.87
2023-05-04T03:19:02.060Z,7.86
2023-05-04T03:21:30.952Z,7.75
2023-05-04T03:23:59.079Z,7.79
2023-05-04T03:26:25.728Z,7.54
2023-05-04T03:28:52.311Z,7.53
2023-05-04T03:31:21.624Z,7.65
2023-05-04T03:33:48.317Z,7.62
2023-05-04T03:36:14.923Z,7.59
2023-05-04T03:38:42.414Z,7.63
2023-05-04T03:41:08.971Z,7.43
2023-05-04T03:43:37.854Z,7.54
2023-05-04T03:46:04.604Z,7.48
2023-05-04T03:48:31.517Z,7.42
2023-05-04T03:51:00.393Z,7.53
2023-05-04T03:53:27.032Z,7.52
2023-05-04T03:55:53.690Z,7.50
2023-05-04T03:58:20.220Z,7.37
2023-05-04T04:00:49.282Z,7.39
2023-05-04T04:03:18.658Z,7.44
2023-05-04T04:05:47.942Z,7.37
2023-05-04T04:08:14.564Z,7.42
2023-05-04T04:10:44.428Z,7.22
2023-05-04T04:13:13.499Z,7.33
2023-05-04T04:15:40.939Z,7.39
2023-05-04T04:18:13.569Z,7.43
2023-05-04T04:20:42.366Z,7.47
2023-05-04T04:23:09.283Z,7.51
2023-05-04T04:25:38.165Z,7.52
2023-05-04T04:28:04.848Z,7.44
2023-05-04T04:30:31.836Z,7.61
2023-05-04T04:32:58.460Z,7.63
2023-05-04T04:35:27.508Z,7.68
2023-05-04T04:37:54.134Z,7.76
2023-05-04T04:40:22.553Z,7.83
2023-05-04T04:42:49.693Z,7.76
2023-05-04T04:45:16.747Z,7.99
2023-05-04T04:47:43.591Z,7.62
2023-05-04T04:50:13.203Z,8.26
2023-05-04T04:52:44.212Z,8.62
2023-05-04T04:55:11.328Z,8.94
2023-05-04T04:57:37.956Z,9.18
2023-05-04T05:00:09.694Z,9.28
2023-05-04T05:02:36.916Z,9.30
2023-05-04T05:05:04.042Z,9.42
2023-05-04T05:07:35.975Z,9.52
2023-05-04T05:10:04.819Z,9.64
2023-05-04T05:12:33.116Z,9.73
2023-05-04T05:15:00.827Z,9.68
2023-05-04T05:17:28.313Z,9.69
2023-05-04T05:19:55.560Z,9.77
2023-05-04T05:22:36.412Z,9.80
2023-05-04T05:25:03.324Z,9.92
2023-05-04T05:27:29.900Z,10.23
2023-05-04T05:29:57.366Z,10.72
2023-05-04T05:32:24.001Z,10.84
2023-05-04T05:34:50.606Z,11.23
2023-05-04T05:37:17.345Z,11.66
2023-05-04T05:39:43.876Z,12.18
2023-05-04T05:42:11.334Z,12.31
2023-05-04T05:44:37.939Z,12.63
2023-05-04T05:47:05.164Z,13.24
2023-05-04T05:49:32.082Z,13.58
2023-05-04T05:52:01.078Z,13.22
2023-05-04T05:54:30.421Z,13.07
2023-05-04T05:56:57.058Z,13.88
2023-05-04T05:59:23.779Z,14.40
2023-05-04T06:01:50.368Z,14.32
2023-05-04T06:04:17.039Z,14.05
2023-05-04T06:06:45.730Z,13.96
2023-05-04T06:09:13.038Z,13.81
2023-05-04T06:11:42.972Z,13.52
2023-05-04T06:14:09.791Z,13.26
2023-05-04T06:16:38.952Z,13.22
2023-05-04T06:19:05.815Z,13.63
2023-05-04T06:21:32.394Z,13.82
2023-05-04T06:23:59.001Z,14.04
2023-05-04T06:26:26.132Z,14.18
2023-05-04T06:28:55.203Z,14.18
2023-05-04T06:31:26.865Z,14.59
2023-05-04T06:33:53.675Z,15.12
2023-05-04T06:36:20.296Z,15.33
2023-05-04T06:38:46.859Z,15.36
2023-05-04T06:41:14.172Z,15.35
2023-05-04T06:43:45.232Z,15.40
2023-05-04T06:46:12.509Z,15.58
2023-05-04T06:48:50.431Z,15.61
2023-05-04T06:51:20.808Z,15.70
2023-05-04T06:53:47.816Z,15.94
2023-05-04T06:56:17.357Z,16.37
2023-05-04T06:58:46.080Z,16.56
2023-05-04T07:01:13.225Z,17.05
2023-05-04T07:03:39.840Z,17.31
2023-05-04T07:06:07.306Z,17.67
2023-05-04T07:08:36.489Z,17.92
2023-05-04T07:11:04.235Z,18.04
2023-05-04T07:13:35.713Z,18.09
2023-05-04T07:17:17.839Z,18.43
2023-05-04T07:19:44.704Z,18.45
2023-05-04T07:22:11.677Z,19.21
2023-05-04T07:24:40.586Z,19.98
2023-05-04T07:27:07.314Z,19.56
2023-05-04T07:29:34.127Z,19.90
2023-05-04T07:32:00.921Z,19.88
2023-05-04T07:34:38.188Z,20.30
2023-05-04T07:37:16.765Z,20.30
2023-05-04T07:39:43.848Z,20.09
2023-05-04T07:42:12.125Z,20.37
2023-05-04T07:44:39.201Z,20.31
2023-05-04T07:47:06.776Z,20.80
2023-05-04T07:49:34.452Z,20.73
2023-05-04T07:52:04.382Z,21.09
2023-05-04T07:54:31.348Z,20.81
2023-05-04T07:56:58.022Z,20.81
2023-05-04T07:59:24.779Z,20.93
2023-05-04T08:01:51.808Z,21.23
2023-05-04T08:04:18.665Z,21.33
2023-05-04T08:06:47.126Z,19.95
2023-05-04T08:09:14.063Z,20.94
2023-05-04T08:11:43.777Z,20.65
2023-05-04T08:14:10.856Z,20.71
2023-05-04T08:16:40.253Z,21.32
2023-05-04T08:19:07.223Z,20.96
2023-05-04T08:21:34.159Z,21.63
2023-05-04T08:24:01.499Z,21.56
2023-05-04T08:26:28.451Z,21.73
2023-05-04T08:29:06.189Z,20.70
2023-05-04T08:31:34.218Z,20.74
2023-05-04T08:34:01.984Z,20.76
2023-05-04T08:36:29.852Z,20.87
2023-05-04T08:38:57.141Z,21.04
2023-05-04T08:41:26.319Z,21.06
2023-05-04T08:43:53.649Z,21.71
2023-05-04T08:46:20.507Z,22.19
2023-05-04T08:48:49.576Z,22.05
2023-05-04T08:51:16.377Z,22.53
2023-05-04T08:53:46.689Z,22.76
2023-05-04T08:56:14.961Z,22.83
2023-05-04T08:58:50.231Z,23.25
2023-05-04T09:01:20.034Z,23.37
2023-05-04T09:03:47.754Z,23.21
2023-05-04T09:06:15.275Z,22.88
2023-05-04T09:08:42.897Z,23.03
2023-05-04T09:11:09.974Z,22.78
2023-05-04T09:13:37.168Z,22.64
2023-05-04T09:16:04.358Z,23.09
2023-05-04T09:18:41.387Z,23.12
2023-05-04T09:21:08.357Z,22.87
2023-05-04T09:23:55.335Z,22.55
2023-05-04T09:26:31.512Z,23.04
2023-05-04T09:29:10.160Z,23.06
2023-05-04T09:31:50.162Z,22.52
2023-05-04T09:34:18.548Z,22.50
2023-05-04T09:36:45.694Z,22.56
2023-05-04T09:39:13.419Z,22.56
2023-05-04T09:41:42.308Z,22.27
2023-05-04T09:44:20.016Z,22.33
2023-05-04T09:46:58.216Z,22.72
2023-05-04T09:49:39.059Z,22.85
2023-05-04T09:52:07.142Z,22.92
2023-05-04T09:54:39.841Z,22.59
2023-05-04T09:57:20.322Z,22.98
2023-05-04T09:59:47.428Z,23.01
2023-05-04T10:02:22.414Z,23.34
2023-05-04T10:04:57.715Z,23.46
2023-05-04T10:07:25.054Z,23.15
2023-05-04T10:10:00.063Z,23.21
2023-05-04T10:12:26.936Z,23.06
2023-05-04T10:14:53.946Z,22.45
2023-05-04T10:17:45.411Z,22.77
2023-05-04T10:20:37.542Z,22.91
2023-05-04T10:23:35.403Z,22.94
2023-05-04T10:26:07.991Z,23.29
2023-05-04T10:28:40.459Z,23.27
2023-05-04T10:31:07.548Z,23.31
2023-05-04T10:33:42.062Z,23.52
2023-05-04T10:36:10.471Z,23.17
2023-05-04T10:38:39.709Z,22.87
2023-05-04T10:41:23.069Z,22.88
2023-05-04T10:43:53.228Z,23.14
2023-05-04T10:46:23.983Z,23.35
2023-05-04T10:48:51.041Z,23.53
2023-05-04T10:51:22.956Z,23.63
2023-05-04T10:53:50.417Z,23.21
2023-05-04T10:56:35.785Z,23.20
2023-05-04T10:59:10.314Z,23.51
2023-05-04T11:01:47.468Z,23.78
2023-05-04T11:04:25.979Z,23.77
2023-05-04T11:07:08.808Z,23.66
2023-05-04T11:09:41.006Z,23.74
2023-05-04T11:12:10.685Z,23.76
2023-05-04T11:14:42.783Z,23.74
2023-05-04T11:17:26.843Z,23.84
2023-05-04T11:19:54.753Z,24.15
2023-05-04T11:22:24.329Z,24.25
2023-05-04T11:24:51.363Z,24.21
2023-05-04T11:27:26.315Z,24.05
2023-05-04T11:30:04.626Z,24.01
2023-05-04T11:32:43.232Z,24.14
2023-05-04T11:35:18.870Z,24.18
2023-05-04T11:37:47.588Z,24.43
2023-05-04T11:40:19.460Z,24.34
2023-05-04T11:42:47.103Z,24.55
2023-05-04T11:45:17.641Z,24.59
2023-05-04T11:47:45.769Z,24.58
2023-05-04T11:50:14.646Z,24.88
2023-05-04T11:52:44.282Z,25.06
2023-05-04T11:55:13.540Z,25.30
2023-05-04T11:57:43.162Z,25.44
2023-05-04T12:00:12.954Z,25.52
2023-05-04T12:02:40.198Z,25.68
2023-05-04T12:05:15.648Z,25.81
2023-05-04T12:07:42.866Z,25.78
2023-05-04T12:10:10.495Z,25.51
2023-05-04T12:12:39.804Z,25.08
2023-05-04T12:15:08.139Z,25.36
2023-05-04T12:17:44.698Z,25.26
2023-05-04T12:20:25.585Z,25.24
2023-05-04T12:22:57.272Z,25.39
2023-05-04T12:25:29.743Z,25.38
2023-05-04T12:30:44.651Z,25.16
2023-05-04T12:33:11.593Z,25.05
2023-05-04T12:35:38.429Z,25.45
2023-05-04T12:38:05.446Z,25.78
2023-05-04T12:40:37.082Z,25.63
2023-05-04T12:43:06.370Z,26.12
2023-05-04T12:45:44.239Z,26.37
2023-05-04T12:48:12.195Z,26.52
2023-05-04T12:50:38.950Z,26.53
2023-05-04T12:53:07.653Z,26.39
2023-05-04T12:55:34.406Z,26.57
2023-05-04T12:58:01.498Z,26.53
2023-05-04T13:00:28.921Z,26.58
2023-05-04T13:02:55.891Z,26.51
2023-05-04T13:05:23.399Z,26.17
2023-05-04T13:07:50.276Z,26.16
2023-05-04T13:10:17.096Z,26.10
2023-05-04T13:12:46.108Z,26.09
2023-05-04T13:15:15.393Z,25.90
2023-05-04T13:17:45.391Z,25.77
2023-05-04T13:20:13.534Z,25.76
2023-05-04T13:22:40.765Z,25.65
2023-05-04T13:25:08.608Z,25.55
2023-05-04T13:27:35.609Z,25.55
2023-05-04T13:30:04.020Z,25.64
2023-05-04T13:32:31.291Z,25.62
2023-05-04T13:34:58.127Z,25.45
2023-05-04T13:37:24.796Z,25.45
2023-05-04T13:39:51.345Z,25.54
2023-05-04T13:42:20.552Z,25.34
2023-05-04T13:44:48.297Z,25.31
2023-05-04T13:47:18.788Z,25.46
2023-05-04T13:49:45.653Z,25.53
2023-05-04T13:52:12.644Z,25.62
2023-05-04T13:54:40.775Z,25.64
2023-05-04T13:57:07.740Z,25.70
2023-05-04T13:59:34.507Z,25.77
2023-05-04T14:02:01.395Z,25.60
2023-05-04T14:04:30.368Z,25.59
2023-05-04T14:06:57.745Z,25.61
2023-05-04T14:09:30.202Z,25.37
2023-05-04T14:11:56.884Z,25.43
2023-05-04T14:14:23.605Z,25.49
2023-05-04T14:16:50.336Z,25.55
2023-05-04T14:19:17.125Z,25.45
2023-05-04T14:21:43.658Z,25.54
2023-05-04T14:24:10.230Z,25.69
2023-05-04T14:26:37.035Z,25.89
2023-05-04T14:29:06.064Z,25.77
2023-05-04T14:31:32.756Z,25.77
2023-05-04T14:33:59.406Z,25.91
2023-05-04T14:36:26.274Z,26.02
2023-05-04T14:38:53.104Z,26.06
2023-05-04T14:41:20.076Z,26.25
2023-05-04T14:43:50.307Z,26.24
2023-05-04T14:46:17.240Z,26.24
2023-05-04T14:48:43.798Z,26.17
2023-05-04T14:51:12.751Z,26.11
2023-05-04T14:53:40.940Z,25.92
2023-05-04T14:56:09.793Z,26.00
2023-05-04T14:58:36.438Z,26.04
2023-05-04T15:01:06.579Z,26.01
2023-05-04T15:03:33.902Z,26.10
2023-05-04T15:06:03.949Z,26.04
2023-05-04T15:08:30.908Z,25.78
2023-05-04T15:10:58.858Z,25.82
2023-05-04T15:13:26.463Z,25.66
2023-05-04T15:15:53.182Z,25.90
2023-05-04T15:18:24.122Z,25.99
2023-05-04T15:20:50.917Z,25.81
2023-05-04T15:23:21.295Z,25.84
2023-05-04T15:25:50.096Z,25.81
2023-05-04T15:28:18.106Z,25.77
2023-05-04T15:30:46.958Z,25.98
2023-05-04T15:33:13.610Z,25.97
2023-05-04T15:35:40.321Z,26.04
2023-05-04T15:38:07.104Z,26.17
2023-05-04T15:40:33.780Z,26.21
2023-05-04T15:43:00.373Z,26.27
2023-05-04T15:45:29.277Z,26.31
2023-05-04T15:47:58.434Z,26.24
2023-05-04T15:50:25.481Z,26.09
2023-05-04T15:52:53.103Z,26.06
2023-05-04T15:55:26.070Z,26.03
2023-05-04T15:57:54.186Z,26.00
2023-05-04T16:00:25.613Z,25.96
2023-05-04T16:02:55.287Z,26.03
2023-05-04T16:05:22.169Z,26.07
2023-05-04T16:07:51.400Z,26.18
2023-05-04T16:10:18.317Z,26.11
2023-05-04T16:12:45.121Z,25.99
2023-05-04T16:15:14.560Z,25.98
2023-05-04T16:17:41.555Z,25.95
2023-05-04T16:20:09.039Z,25.89
2023-05-04T16:22:35.930Z,25.80
2023-05-04T16:25:02.824Z,25.97
2023-05-04T16:27:29.536Z,26.14
2023-05-04T16:29:56.299Z,26.19
2023-05-04T16:32:23.446Z,26.17
2023-05-04T16:34:50.116Z,26.16
2023-05-04T16:37:18.509Z,26.16
2023-05-04T16:39:47.225Z,26.03
2023-05-04T16:42:13.861Z,25.94
2023-05-04T16:44:41.324Z,25.95
2023-05-04T16:47:08.299Z,25.81
2023-05-04T16:49:35.221Z,25.74
2023-05-04T16:52:03.615Z,25.83
2023-05-04T16:54:31.951Z,26.00
2023-05-04T16:56:59.545Z,26.01
2023-05-04T16:59:26.976Z,25.98
2023-05-04T17:01:53.746Z,25.97
2023-05-04T17:04:20.517Z,25.63
2023-05-04T17:06:48.595Z,25.83
2023-05-04T17:09:15.240Z,25.77
2023-05-04T17:11:42.025Z,25.61
2023-05-04T17:14:08.675Z,25.46
2023-05-04T17:16:35.510Z,25.46
2023-05-04T17:19:02.162Z,25.33
2023-05-04T17:21:28.742Z,25.68
2023-05-04T17:23:55.789Z,25.84
2023-05-04T17:26:22.637Z,25.65
2023-05-04T17:28:49.409Z,25.39
2023-05-04T17:31:15.995Z,25.25
2023-05-04T17:33:42.775Z,25.20
2023-05-04T17:36:12.435Z,25.04
2023-05-04T17:38:40.241Z,24.99
2023-05-04T17:41:09.774Z,24.93
2023-05-04T17:43:37.017Z,24.69
2023-05-04T17:46:04.449Z,24.49
2023-05-04T17:48:31.438Z,24.39
2023-05-04T17:50:58.972Z,24.36
2023-05-04T17:53:29.444Z,24.09
2023-05-04T17:55:56.414Z,24.16
2023-05-04T17:58:23.157Z,24.10
2023-05-04T18:00:52.098Z,23.98
2023-05-04T18:03:20.069Z,23.82
2023-05-04T18:05:46.896Z,23.76
2023-05-04T18:08:14.207Z,23.62
2023-05-04T18:10:41.249Z,23.53
2023-05-04T18:13:10.305Z,23.45
2023-05-04T18:15:37.228Z,23.40
2023-05-04T18:18:04.164Z,23.31
2023-05-04T18:20:30.932Z,23.21
2023-05-04T18:22:58.372Z,23.13
2023-05-04T18:25:25.429Z,22.97
2023-05-04T18:27:55.264Z,22.86
2023-05-04T18:30:22.302Z,22.74
2023-05-04T18:32:49.111Z,22.71
2023-05-04T18:35:17.286Z,22.56
2023-05-04T18:37:44.096Z,22.53
2023-05-04T18:40:11.509Z,22.40
2023-05-04T18:42:38.156Z,22.33
2023-05-04T18:45:05.362Z,22.23
2023-05-04T18:47:32.752Z,22.12
2023-05-04T18:50:00.671Z,22.09
2023-05-04T18:52:56.872Z,21.99
2023-05-04T18:55:23.682Z,21.91
2023-05-04T18:57:50.862Z,21.81
2023-05-04T19:00:17.683Z,21.76
2023-05-04T19:02:44.432Z,21.69
2023-05-04T19:05:13.716Z,21.54
2023-05-04T19:07:41.173Z,21.48
2023-05-04T19:10:09.070Z,21.42
2023-05-04T19:12:36.391Z,21.39
2023-05-04T19:15:03.189Z,21.26
2023-05-04T19:17:29.916Z,21.24
2023-05-04T19:20:00.277Z,21.20
2023-05-04T19:22:29.326Z,21.12
2023-05-04T19:24:58.420Z,20.97
2023-05-04T19:27:25.060Z,20.92
2023-05-04T19:29:51.630Z,20.90
2023-05-04T19:32:24.751Z,20.84
2023-05-04T19:34:52.424Z,20.76
2023-05-04T19:37:19.496Z,20.69
2023-05-04T19:39:46.355Z,20.59
2023-05-04T19:42:12.924Z,20.36
2023-05-04T19:44:39.576Z,20.53
2023-05-04T19:47:10.696Z,20.48
2023-05-04T19:49:37.355Z,20.42
2023-05-04T19:52:07.097Z,20.36
2023-05-04T19:54:34.029Z,20.09
2023-05-04T19:57:03.378Z,20.19
2023-05-04T19:59:30.029Z,20.17
2023-05-04T20:01:56.722Z,20.07
2023-05-04T20:04:27.880Z,20.00
2023-05-04T20:06:57.143Z,20.01
2023-05-04T20:09:26.210Z,19.95
2023-05-04T20:11:52.750Z,19.83
2023-05-04T20:14:19.381Z,19.80
2023-05-04T20:16:46.661Z,19.77
2023-05-04T20:19:15.871Z,19.73
2023-05-04T20:21:42.476Z,19.64
2023-05-04T20:24:12.468Z,19.68
2023-05-04T20:26:39.097Z,19.60
2023-05-04T20:29:05.870Z,19.55
2023-05-04T20:31:36.055Z,19.53
2023-05-04T20:34:05.465Z,19.51
2023-05-04T20:36:36.158Z,19.49
2023-05-04T20:39:07.765Z,19.53
2023-05-04T20:41:34.913Z,19.51
2023-05-04T20:44:02.254Z,19.45
2023-05-04T20:46:29.322Z,19.42
2023-05-04T20:48:57.059Z,19.23
2023-05-04T20:51:24.042Z,19.31
2023-05-04T20:53:51.229Z,19.27
2023-05-04T20:56:18.202Z,19.10
2023-05-04T20:58:47.914Z,19.18
2023-05-04T21:01:15.409Z,19.13
2023-05-04T21:03:42.481Z,19.05
2023-05-04T21:06:09.869Z,19.02
2023-05-04T21:08:39.451Z,18.96
2023-05-04T21:11:06.700Z,18.92
2023-05-04T21:13:33.685Z,18.77
2023-05-04T21:16:00.552Z,18.82
2023-05-04T21:18:30.262Z,18.80
2023-05-04T21:20:57.214Z,18.70
2023-05-04T21:23:25.211Z,18.77
2023-05-04T21:26:03.849Z,18.59
2023-05-04T21:28:32.976Z,18.06
2023-05-04T21:30:59.898Z,18.71
2023-05-04T21:33:30.411Z,18.70
2023-05-04T21:36:00.597Z,18.69
2023-05-04T21:38:28.380Z,18.66
2023-05-04T21:40:55.147Z,18.66
2023-05-04T21:43:21.936Z,18.62
2023-05-04T21:45:48.730Z,18.54
2023-05-04T21:48:15.650Z,18.52
2023-05-04T21:50:42.709Z,18.49
2023-05-04T21:53:09.646Z,18.32
2023-05-04T21:55:36.713Z,18.52
2023-05-04T21:58:03.652Z,18.35
2023-05-04T22:00:30.978Z,18.44
2023-05-04T22:02:58.240Z,18.49
2023-05-04T22:05:25.106Z,18.44
2023-05-04T22:07:52.146Z,18.39
2023-05-04T22:10:22.081Z,18.43
2023-05-04T22:12:49.323Z,18.29
2023-05-04T22:15:16.704Z,18.26
2023-05-04T22:17:46.154Z,18.31
2023-05-04T22:20:13.710Z,18.36
2023-05-04T22:22:40.962Z,17.64
2023-05-04T22:25:08.248Z,18.31
2023-05-04T22:27:35.376Z,18.33
2023-05-04T22:30:02.724Z,18.27
2023-05-04T22:32:30.230Z,18.30
2023-05-04T22:34:59.935Z,17.98
2023-05-04T22:37:27.316Z,18.33
2023-05-04T22:39:54.404Z,18.24
2023-05-04T22:42:26.168Z,18.18
2023-05-04T22:44:55.767Z,18.14
2023-05-04T22:47:26.025Z,17.34
2023-05-04T22:49:58.920Z,18.12
2023-05-04T22:52:28.094Z,18.09
2023-05-04T22:54:55.169Z,18.02
2023-05-04T22:57:23.076Z,18.05
2023-05-04T22:59:53.112Z,17.93
2023-05-04T23:02:20.061Z,17.95
2023-05-04T23:04:47.030Z,17.94
2023-05-04T23:07:14.741Z,17.85
2023-05-04T23:09:43.502Z,17.83
2023-05-04T23:12:10.433Z,17.85
2023-05-04T23:14:37.666Z,17.78
2023-05-04T23:17:07.290Z,17.77
2023-05-04T23:19:38.075Z,16.99
2023-05-04T23:22:05.020Z,17.83
2023-05-04T23:24:32.189Z,17.74
2023-05-04T23:26:59.454Z,17.87
2023-05-04T23:29:26.794Z,17.79
2023-05-04T23:31:54.064Z,17.87
2023-05-04T23:34:21.353Z,17.89
2023-05-04T23:36:49.673Z,17.92
2023-05-04T23:39:17.116Z,17.95
2023-05-04T23:41:44.588Z,17.99
2023-05-04T23:44:11.844Z,17.84
2023-05-04T23:46:39.180Z,17.95
2023-05-04T23:49:08.908Z,18.04
2023-05-04T23:51:36.303Z,18.04
2023-05-04T23:54:03.393Z,18.05
2023-05-04T23:56:31.794Z,18.05
2023-05-04T23:58:59.094Z,17.97
